createdAt,value
2022-10-19T00:00:53.590Z,60.99
2022-10-19T00:01:53.625Z,52.89
2022-10-19T00:02:53.605Z,52.94
2022-10-19T00:03:53.596Z,55.17
2022-10-19T00:04:53.568Z,56.30
2022-10-19T00:05:53.571Z,52.69
2022-10-19T00:06:53.547Z,52.84
2022-10-19T00:07:53.557Z,52.68
2022-10-19T00:08:53.574Z,52.90
2022-10-19T00:09:53.534Z,58.31
2022-10-19T00:10:53.539Z,53.87
2022-10-19T00:11:53.510Z,62.51
2022-10-19T00:12:53.536Z,52.99
2022-10-19T00:13:53.542Z,52.79
2022-10-19T00:14:53.502Z,57.83
2022-10-19T00:15:53.494Z,54.83
2022-10-19T00:16:53.483Z,53.04
2022-10-19T00:17:53.488Z,58.08
2022-10-19T00:18:53.494Z,54.92
2022-10-19T00:19:53.486Z,63.65
2022-10-19T00:20:53.462Z,53.49
2022-10-19T00:21:53.466Z,52.72
2022-10-19T00:22:53.457Z,52.79
2022-10-19T00:23:53.446Z,52.81
2022-10-19T00:24:54.411Z,52.78
2022-10-19T00:25:53.481Z,52.88
2022-10-19T00:26:53.422Z,52.92
2022-10-19T00:27:53.409Z,56.76
2022-10-19T00:28:53.509Z,52.75
2022-10-19T00:29:53.407Z,56.44
2022-10-19T00:30:53.399Z,60.98
2022-10-19T00:31:53.389Z,53.22
2022-10-19T00:32:53.381Z,60.54
2022-10-19T00:33:53.370Z,52.93
2022-10-19T00:34:53.378Z,58.63
2022-10-19T00:35:53.382Z,57.35
2022-10-19T00:36:53.349Z,52.64
2022-10-19T00:37:53.358Z,52.79
2022-10-19T00:38:53.325Z,52.73
2022-10-19T00:39:53.349Z,52.71
2022-10-19T00:40:53.326Z,63.40
2022-10-19T00:41:53.334Z,66.32
2022-10-19T00:42:53.314Z,52.76
2022-10-19T00:43:53.327Z,52.91
2022-10-19T00:44:53.332Z,58.38
2022-10-19T00:45:53.297Z,56.86
2022-10-19T00:46:53.296Z,56.02
2022-10-19T00:47:53.278Z,64.91
2022-10-19T00:48:53.271Z,58.54
2022-10-19T00:49:53.274Z,52.81
2022-10-19T00:50:53.277Z,59.89
2022-10-19T00:51:53.257Z,61.45
2022-10-19T00:52:53.241Z,52.72
2022-10-19T00:53:53.253Z,52.73
2022-10-19T00:54:53.230Z,52.75
2022-10-19T00:55:53.270Z,52.69
2022-10-19T00:56:53.214Z,55.15
2022-10-19T00:57:53.242Z,55.45
2022-10-19T00:58:53.226Z,52.78
2022-10-19T00:59:53.221Z,52.82
2022-10-19T01:00:53.248Z,58.11
2022-10-19T01:01:53.294Z,62.45
2022-10-19T01:02:53.175Z,52.65
2022-10-19T01:03:53.197Z,52.68
2022-10-19T01:04:53.170Z,52.63
2022-10-19T01:05:53.166Z,57.97
2022-10-19T01:06:53.196Z,52.51
2022-10-19T01:07:53.163Z,53.80
2022-10-19T01:08:53.145Z,52.76
2022-10-19T01:09:53.186Z,52.75
2022-10-19T01:10:53.130Z,52.59
2022-10-19T01:11:53.133Z,52.63
2022-10-19T01:12:53.109Z,52.72
2022-10-19T01:13:53.101Z,52.82
2022-10-19T01:14:53.117Z,57.68
2022-10-19T01:16:53.098Z,52.66
2022-10-19T01:17:53.979Z,57.36
2022-10-19T01:18:53.122Z,52.87
2022-10-19T01:19:53.065Z,59.99
2022-10-19T01:20:53.050Z,52.64
2022-10-19T01:21:53.073Z,52.73
2022-10-19T01:22:53.064Z,60.12
2022-10-19T01:23:53.029Z,58.44
2022-10-19T01:24:53.018Z,59.14
2022-10-19T01:25:53.017Z,63.52
2022-10-19T01:26:53.050Z,66.00
2022-10-19T01:27:53.008Z,58.97
2022-10-19T01:28:53.097Z,52.76
2022-10-19T01:29:53.006Z,52.62
2022-10-19T01:30:52.989Z,52.55
2022-10-19T01:31:52.985Z,52.54
2022-10-19T01:32:52.998Z,52.60
2022-10-19T01:33:53.015Z,58.78
2022-10-19T01:34:52.965Z,62.40
2022-10-19T01:35:52.939Z,52.66
2022-10-19T01:36:52.953Z,57.17
2022-10-19T01:37:52.965Z,56.33
2022-10-19T01:38:52.928Z,52.61
2022-10-19T01:39:52.921Z,52.58
2022-10-19T01:40:52.933Z,52.58
2022-10-19T01:41:52.933Z,52.60
2022-10-19T01:42:52.901Z,52.48
2022-10-19T01:43:52.931Z,52.44
2022-10-19T01:44:52.884Z,52.55
2022-10-19T01:45:52.881Z,58.44
2022-10-19T01:46:52.891Z,57.34
2022-10-19T01:47:52.878Z,52.47
2022-10-19T01:48:52.879Z,54.56
2022-10-19T01:49:52.863Z,56.11
2022-10-19T01:50:52.849Z,59.02
2022-10-19T01:51:52.871Z,57.23
2022-10-19T01:52:52.856Z,56.93
2022-10-19T01:53:52.837Z,52.61
2022-10-19T01:54:52.824Z,58.31
2022-10-19T01:55:52.823Z,52.69
2022-10-19T01:56:52.808Z,62.31
2022-10-19T01:57:52.810Z,57.06
2022-10-19T01:58:52.810Z,56.63
2022-10-19T01:59:52.789Z,55.15
2022-10-19T02:00:52.914Z,54.84
2022-10-19T02:01:53.792Z,54.59
2022-10-19T02:02:52.773Z,54.24
2022-10-19T02:03:52.784Z,54.30
2022-10-19T02:04:52.775Z,54.49
2022-10-19T02:05:52.753Z,56.62
2022-10-19T02:06:52.749Z,57.05
2022-10-19T02:07:52.735Z,56.13
2022-10-19T02:08:52.746Z,55.24
2022-10-19T02:09:52.721Z,64.19
2022-10-19T02:10:52.897Z,64.58
2022-10-19T02:11:56.160Z,61.41
2022-10-19T02:12:52.705Z,53.71
2022-10-19T02:13:53.509Z,57.25
2022-10-19T02:14:52.708Z,59.63
2022-10-19T02:15:52.765Z,54.20
2022-10-19T02:16:52.677Z,58.18
2022-10-19T02:17:52.678Z,61.38
2022-10-19T02:18:52.682Z,62.42
2022-10-19T02:19:52.673Z,53.54
2022-10-19T02:20:52.725Z,55.25
2022-10-19T02:21:52.652Z,58.74
2022-10-19T02:22:52.624Z,56.45
2022-10-19T02:23:54.195Z,62.94
2022-10-19T02:24:52.638Z,58.37
2022-10-19T02:25:52.622Z,57.03
2022-10-19T02:26:52.617Z,59.51
2022-10-19T02:27:52.601Z,54.33
2022-10-19T02:28:52.615Z,58.48
2022-10-19T02:29:52.620Z,59.34
2022-10-19T02:30:52.588Z,59.83
2022-10-19T02:31:52.585Z,58.01
2022-10-19T02:32:52.566Z,59.97
2022-10-19T02:33:52.561Z,58.20
2022-10-19T02:34:52.570Z,58.35
2022-10-19T02:35:53.468Z,61.12
2022-10-19T02:36:52.540Z,60.19
2022-10-19T02:37:52.545Z,53.19
2022-10-19T02:38:52.529Z,52.86
2022-10-19T02:39:52.520Z,61.74
2022-10-19T02:40:52.546Z,60.12
2022-10-19T02:41:52.500Z,57.50
2022-10-19T02:42:52.501Z,58.95
2022-10-19T02:43:52.521Z,53.69
2022-10-19T02:44:52.487Z,52.84
2022-10-19T02:45:52.520Z,56.11
2022-10-19T02:46:52.498Z,57.92
2022-10-19T02:47:52.476Z,59.02
2022-10-19T02:48:52.495Z,53.10
2022-10-19T02:49:52.472Z,57.70
2022-10-19T02:50:52.453Z,58.02
2022-10-19T02:51:52.449Z,63.83
2022-10-19T02:52:52.449Z,56.46
2022-10-19T02:53:52.444Z,53.96
2022-10-19T02:54:52.421Z,62.12
2022-10-19T02:55:52.450Z,59.76
2022-10-19T02:56:52.417Z,67.00
2022-10-19T02:57:52.424Z,56.83
2022-10-19T02:58:52.393Z,60.27
2022-10-19T02:59:52.392Z,60.32
2022-10-19T03:00:52.459Z,66.16
2022-10-19T03:01:52.387Z,60.98
2022-10-19T03:02:52.385Z,57.90
2022-10-19T03:03:52.375Z,68.59
2022-10-19T03:04:52.367Z,62.83
2022-10-19T03:05:52.369Z,65.30
2022-10-19T03:06:52.349Z,63.11
2022-10-19T03:07:52.349Z,68.97
2022-10-19T03:08:52.333Z,60.04
2022-10-19T03:09:52.336Z,67.92
2022-10-19T03:10:52.321Z,64.72
2022-10-19T03:11:52.352Z,64.41
2022-10-19T03:12:52.309Z,62.62
2022-10-19T03:13:52.308Z,65.63
2022-10-19T03:14:52.320Z,69.12
2022-10-19T03:15:52.296Z,65.69
2022-10-19T03:16:52.418Z,66.98
2022-10-19T03:17:52.277Z,64.31
2022-10-19T03:18:52.290Z,65.29
2022-10-19T03:19:52.253Z,69.52
2022-10-19T03:20:52.289Z,67.76
2022-10-19T03:21:52.244Z,56.24
2022-10-19T03:23:52.288Z,62.83
2022-10-19T03:24:52.228Z,65.16
2022-10-19T03:25:52.240Z,63.23
2022-10-19T03:26:52.235Z,65.06
2022-10-19T03:27:52.212Z,68.39
2022-10-19T03:28:52.265Z,69.26
2022-10-19T03:29:52.203Z,65.86
2022-10-19T03:30:52.188Z,66.61
2022-10-19T03:31:52.193Z,72.02
2022-10-19T03:32:52.195Z,69.30
2022-10-19T03:33:52.184Z,66.55
2022-10-19T03:34:52.205Z,63.96
2022-10-19T03:35:52.164Z,65.18
2022-10-19T03:36:52.160Z,72.71
2022-10-19T03:37:52.132Z,66.34
2022-10-19T03:38:52.140Z,69.28
2022-10-19T03:39:52.133Z,69.66
2022-10-19T03:40:52.120Z,61.53
2022-10-19T03:41:52.140Z,69.56
2022-10-19T03:42:52.116Z,74.89
2022-10-19T03:43:52.182Z,64.09
2022-10-19T03:44:52.100Z,68.27
2022-10-19T03:45:52.092Z,68.15
2022-10-19T03:46:52.075Z,67.58
2022-10-19T03:47:52.087Z,70.22
2022-10-19T03:48:52.094Z,71.67
2022-10-19T03:49:52.061Z,65.56
2022-10-19T03:50:52.062Z,71.97
2022-10-19T03:51:52.053Z,67.16
2022-10-19T03:52:52.096Z,69.53
2022-10-19T03:53:52.055Z,64.76
2022-10-19T03:54:52.028Z,61.68
2022-10-19T03:55:52.065Z,69.90
2022-10-19T03:56:52.093Z,71.81
2022-10-19T03:57:52.025Z,66.24
2022-10-19T03:58:52.012Z,67.98
2022-10-19T03:59:52.007Z,74.10
2022-10-19T04:00:52.033Z,71.98
2022-10-19T04:01:52.853Z,66.21
2022-10-19T04:02:51.999Z,63.73
2022-10-19T04:03:52.017Z,72.32
2022-10-19T04:04:51.962Z,72.11
2022-10-19T04:05:51.970Z,64.17
2022-10-19T04:06:51.941Z,60.91
2022-10-19T04:07:51.949Z,69.49
2022-10-19T04:08:51.956Z,62.46
2022-10-19T04:09:52.022Z,67.95
2022-10-19T04:10:51.949Z,71.73
2022-10-19T04:11:51.908Z,66.18
2022-10-19T04:12:53.889Z,70.69
2022-10-19T04:13:52.934Z,69.64
2022-10-19T04:14:57.293Z,72.56
2022-10-19T04:15:53.885Z,70.54
2022-10-19T04:16:52.463Z,66.40
2022-10-19T04:17:52.474Z,69.87
2022-10-19T04:18:51.870Z,69.40
2022-10-19T04:19:51.904Z,60.39
2022-10-19T04:20:51.845Z,68.39
2022-10-19T04:21:51.852Z,73.50
2022-10-19T04:22:51.854Z,73.12
2022-10-19T04:23:51.851Z,63.76
2022-10-19T04:24:52.409Z,72.62
2022-10-19T04:25:51.921Z,73.44
2022-10-19T04:26:51.860Z,70.15
2022-10-19T04:27:51.800Z,69.67
2022-10-19T04:28:51.857Z,70.35
2022-10-19T04:29:51.812Z,67.79
2022-10-19T04:30:51.781Z,72.82
2022-10-19T04:31:51.822Z,72.04
2022-10-19T04:32:51.797Z,69.12
2022-10-19T04:33:51.778Z,72.75
2022-10-19T04:34:51.818Z,73.34
2022-10-19T04:35:51.746Z,74.05
2022-10-19T04:36:51.774Z,67.55
2022-10-19T04:37:51.785Z,70.73
2022-10-19T04:38:51.829Z,74.68
2022-10-19T04:39:51.813Z,70.76
2022-10-19T04:40:51.749Z,74.19
2022-10-19T04:41:51.704Z,73.60
2022-10-19T04:42:51.706Z,71.35
2022-10-19T04:43:51.833Z,72.93
2022-10-19T04:44:51.901Z,74.88
2022-10-19T04:45:51.696Z,72.42
2022-10-19T04:46:51.692Z,74.93
2022-10-19T04:47:51.668Z,70.32
2022-10-19T04:48:51.696Z,68.38
2022-10-19T04:49:51.685Z,73.51
2022-10-19T04:50:51.839Z,72.77
2022-10-19T04:51:52.434Z,70.56
2022-10-19T04:52:51.688Z,74.58
2022-10-19T04:53:53.362Z,75.97
2022-10-19T04:54:51.629Z,69.52
2022-10-19T04:55:52.633Z,73.40
2022-10-19T04:56:51.616Z,73.34
2022-10-19T04:57:51.624Z,68.16
2022-10-19T04:58:51.599Z,68.32
2022-10-19T04:59:51.612Z,65.60
2022-10-19T05:00:51.665Z,69.10
2022-10-19T05:01:51.577Z,70.36
2022-10-19T05:03:24.016Z,75.45
2022-10-19T05:03:51.609Z,72.60
2022-10-19T05:04:51.614Z,70.70
2022-10-19T05:05:51.572Z,69.11
2022-10-19T05:06:51.588Z,72.34
2022-10-19T05:07:51.542Z,66.62
2022-10-19T05:08:51.540Z,63.73
2022-10-19T05:09:51.551Z,74.65
2022-10-19T05:10:51.514Z,69.85
2022-10-19T05:11:51.534Z,73.15
2022-10-19T05:12:51.502Z,73.08
2022-10-19T05:13:51.495Z,66.22
2022-10-19T05:14:51.510Z,67.12
2022-10-19T05:15:51.547Z,74.21
2022-10-19T05:16:51.491Z,72.01
2022-10-19T05:17:51.522Z,69.26
2022-10-19T05:18:51.502Z,74.19
2022-10-19T05:19:51.494Z,73.52
2022-10-19T05:20:51.441Z,69.63
2022-10-19T05:21:51.453Z,71.25
2022-10-19T05:22:51.558Z,70.61
2022-10-19T05:23:51.457Z,72.88
2022-10-19T05:24:54.505Z,72.83
2022-10-19T05:25:53.434Z,66.52
2022-10-19T05:26:51.441Z,69.50
2022-10-19T05:27:51.416Z,70.88
2022-10-19T05:28:51.419Z,73.36
2022-10-19T05:29:51.407Z,72.66
2022-10-19T05:30:51.442Z,73.08
2022-10-19T05:31:51.413Z,72.29
2022-10-19T05:32:51.422Z,74.82
2022-10-19T05:33:51.438Z,70.42
2022-10-19T05:34:51.402Z,71.03
2022-10-19T05:35:51.357Z,75.28
2022-10-19T05:36:51.357Z,73.92
2022-10-19T05:37:51.422Z,73.46
2022-10-19T05:38:51.346Z,69.80
2022-10-19T05:39:51.333Z,66.20
2022-10-19T05:40:53.576Z,72.62
2022-10-19T05:41:51.318Z,74.59
2022-10-19T05:42:51.342Z,74.18
2022-10-19T05:43:51.318Z,70.18
2022-10-19T05:44:51.315Z,73.60
2022-10-19T05:45:51.290Z,73.38
2022-10-19T05:46:51.358Z,72.65
2022-10-19T05:47:51.285Z,73.35
2022-10-19T05:48:51.986Z,71.19
2022-10-19T05:49:51.270Z,74.74
2022-10-19T05:50:51.278Z,73.12
2022-10-19T05:51:51.277Z,71.82
2022-10-19T05:52:51.266Z,65.40
2022-10-19T05:53:51.274Z,74.22
2022-10-19T05:54:51.222Z,69.39
2022-10-19T05:55:51.222Z,67.05
2022-10-19T05:56:51.294Z,74.44
2022-10-19T05:57:51.231Z,69.67
2022-10-19T05:58:52.029Z,73.28
2022-10-19T05:59:51.193Z,68.69
2022-10-19T06:00:51.211Z,69.71
2022-10-19T06:01:51.211Z,71.42
2022-10-19T06:02:53.697Z,70.11
2022-10-19T06:03:51.162Z,71.87
2022-10-19T06:04:51.167Z,65.58
2022-10-19T06:05:51.991Z,70.71
2022-10-19T06:06:51.137Z,71.07
2022-10-19T06:07:51.161Z,74.89
2022-10-19T06:08:51.144Z,72.80
2022-10-19T06:09:51.121Z,72.81
2022-10-19T06:10:51.134Z,68.47
2022-10-19T06:11:51.109Z,70.33
2022-10-19T06:12:51.198Z,71.42
2022-10-19T06:13:51.105Z,73.16
2022-10-19T06:14:51.174Z,69.72
2022-10-19T06:15:51.096Z,72.95
2022-10-19T06:16:51.131Z,70.72
2022-10-19T06:17:51.082Z,71.64
2022-10-19T06:18:51.086Z,73.51
2022-10-19T06:19:51.077Z,74.23
2022-10-19T06:20:51.058Z,73.87
2022-10-19T06:21:51.224Z,69.25
2022-10-19T06:22:51.050Z,72.09
2022-10-19T06:23:51.060Z,68.01
2022-10-19T06:24:51.050Z,71.22
2022-10-19T06:25:51.018Z,70.32
2022-10-19T06:26:51.054Z,74.23
2022-10-19T06:27:51.044Z,71.29
2022-10-19T06:28:51.018Z,74.89
2022-10-19T06:29:51.006Z,74.53
2022-10-19T06:30:51.036Z,68.18
2022-10-19T06:31:51.082Z,73.86
2022-10-19T06:32:51.138Z,70.04
2022-10-19T06:33:51.006Z,73.88
2022-10-19T06:34:55.717Z,76.11
2022-10-19T06:35:52.970Z,71.31
2022-10-19T06:36:50.947Z,70.83
2022-10-19T06:37:50.942Z,72.13
2022-10-19T06:38:51.015Z,69.17
2022-10-19T06:39:51.212Z,73.40
2022-10-19T06:40:50.923Z,67.78
2022-10-19T06:41:50.939Z,73.13
2022-10-19T06:42:50.939Z,73.99
2022-10-19T06:43:50.955Z,74.54
2022-10-19T06:44:50.917Z,63.35
2022-10-19T06:45:50.933Z,73.09
2022-10-19T06:46:50.943Z,66.84
2022-10-19T06:47:51.010Z,71.29
2022-10-19T06:48:50.916Z,72.84
2022-10-19T06:49:50.882Z,75.61
2022-10-19T06:50:50.857Z,72.37
2022-10-19T06:51:50.842Z,70.36
2022-10-19T06:52:50.975Z,72.06
2022-10-19T06:53:52.815Z,71.20
2022-10-19T06:54:51.862Z,70.72
2022-10-19T06:55:50.814Z,71.09
2022-10-19T06:56:50.845Z,67.38
2022-10-19T06:57:50.858Z,73.92
2022-10-19T06:58:50.817Z,72.40
2022-10-19T06:59:52.880Z,75.60
2022-10-19T07:00:50.873Z,70.91
2022-10-19T07:01:50.781Z,68.51
2022-10-19T07:02:50.807Z,71.07
2022-10-19T07:03:50.770Z,73.65
2022-10-19T07:04:50.774Z,74.05
2022-10-19T07:05:50.775Z,68.91
2022-10-19T07:06:50.741Z,72.53
2022-10-19T07:07:50.817Z,70.19
2022-10-19T07:08:50.729Z,71.13
2022-10-19T07:09:50.726Z,67.42
2022-10-19T07:10:50.717Z,69.13
2022-10-19T07:11:50.762Z,72.23
2022-10-19T07:12:50.714Z,70.97
2022-10-19T07:13:50.697Z,67.40
2022-10-19T07:14:50.685Z,68.07
2022-10-19T07:15:50.713Z,69.22
2022-10-19T07:16:50.699Z,71.44
2022-10-19T07:17:50.682Z,70.45
2022-10-19T07:18:50.668Z,69.22
2022-10-19T07:19:50.653Z,70.82
2022-10-19T07:20:50.677Z,72.26
2022-10-19T07:21:50.654Z,72.59
2022-10-19T07:22:50.646Z,72.30
2022-10-19T07:23:50.635Z,71.23
2022-10-19T07:24:50.661Z,71.52
2022-10-19T07:25:50.626Z,69.39
2022-10-19T07:26:50.609Z,70.13
2022-10-19T07:27:50.965Z,72.07
2022-10-19T07:28:50.669Z,64.42
2022-10-19T07:29:50.595Z,74.13
2022-10-19T07:30:50.617Z,73.25
2022-10-19T07:31:50.587Z,65.03
2022-10-19T07:32:50.617Z,70.17
2022-10-19T07:33:50.560Z,69.09
2022-10-19T07:34:50.556Z,70.99
2022-10-19T07:35:50.563Z,71.70
2022-10-19T07:36:50.561Z,71.24
2022-10-19T07:37:50.561Z,66.84
2022-10-19T07:38:50.537Z,74.98
2022-10-19T07:39:50.586Z,67.42
2022-10-19T07:40:50.544Z,69.40
2022-10-19T07:41:50.516Z,71.59
2022-10-19T07:42:50.528Z,69.52
2022-10-19T07:43:50.511Z,65.17
2022-10-19T07:44:50.512Z,69.41
2022-10-19T07:45:50.497Z,72.11
2022-10-19T07:46:50.485Z,78.46
2022-10-19T07:47:50.483Z,76.12
2022-10-19T07:48:50.472Z,71.82
2022-10-19T07:49:50.575Z,69.45
2022-10-19T07:50:50.452Z,70.45
2022-10-19T07:51:50.457Z,72.23
2022-10-19T07:52:50.476Z,74.22
2022-10-19T07:53:50.481Z,72.33
2022-10-19T07:54:50.500Z,69.15
2022-10-19T07:55:50.456Z,71.37
2022-10-19T07:56:50.431Z,66.68
2022-10-19T07:57:50.419Z,70.49
2022-10-19T07:58:50.404Z,76.29
2022-10-19T07:59:50.403Z,72.32
2022-10-19T08:00:50.436Z,72.78
2022-10-19T08:01:50.522Z,70.23
2022-10-19T08:03:00.096Z,72.18
2022-10-19T08:05:02.062Z,70.64
2022-10-19T08:05:52.370Z,71.93
2022-10-19T08:06:50.355Z,69.26
2022-10-19T08:07:50.367Z,69.14
2022-10-19T08:08:50.361Z,72.40
2022-10-19T08:09:54.333Z,67.81
2022-10-19T08:10:51.351Z,67.89
2022-10-19T08:11:50.340Z,70.73
2022-10-19T08:12:50.335Z,71.62
2022-10-19T08:13:50.314Z,69.60
2022-10-19T08:14:50.302Z,71.44
2022-10-19T08:15:50.303Z,72.74
2022-10-19T08:16:50.286Z,68.17
2022-10-19T08:17:50.310Z,75.31
2022-10-19T08:18:50.279Z,70.78
2022-10-19T08:19:50.270Z,71.93
2022-10-19T08:20:50.275Z,70.76
2022-10-19T08:21:50.264Z,70.50
2022-10-19T08:22:52.040Z,72.68
2022-10-19T08:23:50.258Z,72.44
2022-10-19T08:24:50.250Z,70.98
2022-10-19T08:25:50.236Z,69.54
2022-10-19T08:26:50.234Z,70.44
2022-10-19T08:27:50.222Z,68.87
2022-10-19T08:28:50.238Z,72.41
2022-10-19T08:29:50.215Z,70.73
2022-10-19T08:30:50.206Z,71.21
2022-10-19T08:31:50.224Z,71.45
2022-10-19T08:32:50.191Z,64.07
2022-10-19T08:33:50.195Z,69.86
2022-10-19T08:34:50.218Z,64.00
2022-10-19T08:35:50.167Z,71.24
2022-10-19T08:36:50.167Z,69.74
2022-10-19T08:37:50.565Z,69.08
2022-10-19T08:38:50.164Z,72.73
2022-10-19T08:39:50.171Z,73.03
2022-10-19T08:40:50.133Z,66.96
2022-10-19T08:41:51.068Z,64.79
2022-10-19T08:42:50.131Z,74.85
2022-10-19T08:43:50.149Z,74.13
2022-10-19T08:44:50.122Z,74.25
2022-10-19T08:45:50.139Z,71.61
2022-10-19T08:46:50.147Z,71.96
2022-10-19T08:47:50.229Z,66.24
2022-10-19T08:48:50.099Z,69.66
2022-10-19T08:49:50.080Z,71.56
2022-10-19T08:50:50.073Z,71.01
2022-10-19T08:51:50.113Z,72.66
2022-10-19T08:52:50.065Z,71.63
2022-10-19T08:53:50.053Z,61.95
2022-10-19T08:54:50.095Z,70.63
2022-10-19T08:55:50.041Z,70.50
2022-10-19T08:56:51.834Z,72.44
2022-10-19T08:57:51.057Z,69.36
2022-10-19T08:58:50.025Z,69.81
2022-10-19T08:59:50.096Z,70.37
2022-10-19T09:00:50.032Z,68.50
2022-10-19T09:01:50.024Z,72.16
2022-10-19T09:02:50.086Z,70.14
2022-10-19T09:03:55.451Z,73.65
2022-10-19T09:04:52.199Z,72.43
2022-10-19T09:05:50.048Z,72.74
2022-10-19T09:06:49.988Z,72.22
2022-10-19T09:07:50.007Z,70.04
2022-10-19T09:08:50.013Z,71.93
2022-10-19T09:09:49.998Z,68.27
2022-10-19T09:10:49.982Z,71.62
2022-10-19T09:11:49.948Z,72.47
2022-10-19T09:12:52.818Z,73.87
2022-10-19T09:14:04.842Z,67.14
2022-10-19T09:14:51.937Z,66.02
2022-10-19T09:15:49.930Z,73.42
2022-10-19T09:16:49.917Z,68.76
2022-10-19T09:17:50.018Z,71.04
2022-10-19T09:18:49.996Z,64.39
2022-10-19T09:19:49.922Z,71.97
2022-10-19T09:20:49.939Z,72.54
2022-10-19T09:21:49.925Z,72.33
2022-10-19T09:22:49.875Z,76.23
2022-10-19T09:23:49.894Z,68.76
2022-10-19T09:24:49.862Z,67.59
2022-10-19T09:25:49.867Z,71.25
2022-10-19T09:26:49.910Z,72.33
2022-10-19T09:27:49.846Z,71.02
2022-10-19T09:28:49.867Z,66.22
2022-10-19T09:29:49.823Z,71.65
2022-10-19T09:30:49.818Z,70.76
2022-10-19T09:31:49.864Z,71.80
2022-10-19T09:32:49.811Z,70.29
2022-10-19T09:33:49.839Z,68.90
2022-10-19T09:34:49.834Z,68.12
2022-10-19T09:35:49.792Z,72.04
2022-10-19T09:36:51.162Z,68.54
2022-10-19T09:37:49.793Z,71.76
2022-10-19T09:38:49.771Z,71.29
2022-10-19T09:39:54.057Z,69.87
2022-10-19T09:40:51.761Z,70.50
2022-10-19T09:41:49.792Z,67.50
2022-10-19T09:42:49.754Z,73.37
2022-10-19T09:43:49.779Z,74.15
2022-10-19T09:44:49.751Z,70.01
2022-10-19T09:45:49.786Z,71.15
2022-10-19T09:46:49.754Z,70.40
2022-10-19T09:47:49.723Z,73.43
2022-10-19T09:48:49.722Z,72.13
2022-10-19T09:49:49.764Z,69.71
2022-10-19T09:50:49.680Z,73.52
2022-10-19T09:51:49.791Z,71.12
2022-10-19T09:52:49.671Z,72.09
2022-10-19T09:53:49.707Z,72.70
2022-10-19T09:54:49.967Z,68.33
2022-10-19T09:56:50.431Z,71.44
2022-10-19T09:57:49.764Z,71.38
2022-10-19T09:58:50.382Z,72.01
2022-10-19T09:59:49.803Z,72.63
2022-10-19T10:00:49.670Z,66.51
2022-10-19T10:01:49.735Z,70.75
2022-10-19T10:02:49.619Z,71.22
2022-10-19T10:03:52.500Z,72.49
2022-10-19T10:04:50.604Z,71.92
2022-10-19T10:05:49.635Z,72.46
2022-10-19T10:06:49.604Z,72.58
2022-10-19T10:07:49.595Z,69.74
2022-10-19T10:08:49.607Z,69.60
2022-10-19T10:09:49.580Z,70.03
2022-10-19T10:10:49.610Z,70.77
2022-10-19T10:11:49.652Z,72.51
2022-10-19T10:12:49.586Z,69.10
2022-10-19T10:13:49.559Z,69.67
2022-10-19T10:14:49.579Z,65.80
2022-10-19T10:15:49.572Z,71.45
2022-10-19T10:16:49.525Z,73.22
2022-10-19T10:17:49.536Z,67.65
2022-10-19T10:18:49.510Z,72.29
2022-10-19T10:19:49.525Z,70.24
2022-10-19T10:20:49.556Z,74.46
2022-10-19T10:21:49.487Z,70.70
2022-10-19T10:22:49.525Z,66.78
2022-10-19T10:23:49.482Z,69.77
2022-10-19T10:24:49.482Z,67.70
2022-10-19T10:25:49.602Z,67.68
2022-10-19T10:26:49.507Z,73.15
2022-10-19T10:27:49.514Z,70.95
2022-10-19T10:28:49.452Z,65.72
2022-10-19T10:29:49.496Z,70.42
2022-10-19T10:30:49.434Z,71.54
2022-10-19T10:31:49.452Z,73.52
2022-10-19T10:32:49.490Z,71.79
2022-10-19T10:33:49.568Z,68.02
2022-10-19T10:34:53.075Z,71.58
2022-10-19T10:35:51.418Z,66.95
2022-10-19T10:36:49.428Z,72.98
2022-10-19T10:37:49.421Z,71.92
2022-10-19T10:38:49.421Z,69.49
2022-10-19T10:39:49.425Z,73.72
2022-10-19T10:40:49.373Z,72.12
2022-10-19T10:41:49.374Z,70.69
2022-10-19T10:42:49.381Z,73.61
2022-10-19T10:43:49.377Z,66.16
2022-10-19T10:44:49.337Z,70.51
2022-10-19T10:45:49.341Z,70.54
2022-10-19T10:46:49.363Z,68.53
2022-10-19T10:47:49.446Z,71.77
2022-10-19T10:48:51.483Z,68.85
2022-10-19T10:49:49.406Z,66.15
2022-10-19T10:50:49.305Z,71.42
2022-10-19T10:51:52.211Z,71.63
2022-10-19T10:52:49.295Z,68.02
2022-10-19T10:53:49.449Z,70.51
2022-10-19T10:54:49.314Z,73.20
2022-10-19T10:55:49.269Z,69.77
2022-10-19T10:56:49.319Z,70.93
2022-10-19T10:57:49.337Z,73.32
2022-10-19T10:58:49.263Z,67.02
2022-10-19T10:59:49.284Z,66.09
2022-10-19T11:00:50.053Z,71.81
2022-10-19T11:01:49.311Z,74.05
2022-10-19T11:02:49.267Z,71.75
2022-10-19T11:03:49.222Z,72.04
2022-10-19T11:04:52.176Z,68.32
2022-10-19T11:05:49.223Z,72.51
2022-10-19T11:06:49.222Z,73.74
2022-10-19T11:07:49.249Z,65.62
2022-10-19T11:08:49.406Z,71.10
2022-10-19T11:09:49.237Z,71.51
2022-10-19T11:10:49.242Z,66.15
2022-10-19T11:11:49.194Z,72.20
2022-10-19T11:12:49.200Z,71.07
2022-10-19T11:13:49.169Z,74.18
2022-10-19T11:14:49.274Z,73.73
2022-10-19T11:15:49.166Z,69.73
2022-10-19T11:16:49.177Z,70.90
2022-10-19T11:17:49.144Z,71.33
2022-10-19T11:18:49.174Z,73.38
2022-10-19T11:19:49.136Z,70.63
2022-10-19T11:20:49.248Z,71.99
2022-10-19T11:21:49.113Z,72.76
2022-10-19T11:22:49.122Z,70.98
2022-10-19T11:23:49.103Z,68.47
2022-10-19T11:24:49.183Z,71.71
2022-10-19T11:25:49.103Z,70.21
2022-10-19T11:26:49.164Z,71.34
2022-10-19T11:27:49.095Z,69.83
2022-10-19T11:28:49.126Z,72.52
2022-10-19T11:29:49.071Z,73.26
2022-10-19T11:30:50.725Z,73.99
2022-10-19T11:31:50.083Z,72.49
2022-10-19T11:32:49.063Z,70.84
2022-10-19T11:33:49.021Z,73.25
2022-10-19T11:34:50.037Z,71.89
2022-10-19T11:35:49.046Z,71.55
2022-10-19T11:36:49.041Z,72.68
2022-10-19T11:37:50.063Z,69.54
2022-10-19T11:38:50.991Z,72.51
2022-10-19T11:39:49.182Z,71.68
2022-10-19T11:41:12.847Z,67.82
2022-10-19T11:41:51.036Z,71.36
2022-10-19T11:42:48.970Z,72.32
2022-10-19T11:43:49.032Z,71.21
2022-10-19T11:44:49.618Z,71.80
2022-10-19T11:45:50.723Z,67.08
2022-10-19T11:46:48.939Z,69.13
2022-10-19T11:47:48.939Z,73.30
2022-10-19T11:48:52.875Z,73.20
2022-10-19T11:49:49.927Z,73.18
2022-10-19T11:50:54.081Z,70.88
2022-10-19T11:51:50.928Z,67.15
2022-10-19T11:52:48.891Z,73.79
2022-10-19T11:53:48.971Z,70.05
2022-10-19T11:54:48.902Z,70.46
2022-10-19T11:55:48.881Z,71.36
2022-10-19T11:57:03.224Z,72.43
2022-10-19T11:57:50.911Z,69.26
2022-10-19T11:58:48.884Z,75.37
2022-10-19T11:59:48.836Z,70.72
2022-10-19T12:00:49.871Z,64.78
2022-10-19T12:01:48.908Z,73.19
2022-10-19T12:02:48.861Z,72.52
2022-10-19T12:03:48.877Z,73.29
2022-10-19T12:04:48.822Z,73.49
2022-10-19T12:05:48.837Z,69.51
2022-10-19T12:06:48.829Z,70.37
2022-10-19T12:07:48.869Z,68.87
2022-10-19T12:08:51.289Z,70.05
2022-10-19T12:09:48.783Z,66.58
2022-10-19T12:10:48.780Z,69.37
2022-10-19T12:11:48.840Z,68.51
2022-10-19T12:12:48.790Z,72.23
2022-10-19T12:13:48.762Z,66.96
2022-10-19T12:14:48.866Z,73.28
2022-10-19T12:15:48.762Z,69.19
2022-10-19T12:16:48.765Z,67.37
2022-10-19T12:17:48.825Z,74.55
2022-10-19T12:18:48.736Z,71.32
2022-10-19T12:19:48.800Z,74.05
2022-10-19T12:20:48.728Z,69.34
2022-10-19T12:21:48.742Z,68.51
2022-10-19T12:22:48.771Z,68.14
2022-10-19T12:23:48.735Z,72.59
2022-10-19T12:24:48.725Z,68.98
2022-10-19T12:25:48.721Z,69.89
2022-10-19T12:26:48.708Z,69.38
2022-10-19T12:27:48.722Z,71.49
2022-10-19T12:28:48.684Z,69.07
2022-10-19T12:29:48.688Z,68.64
2022-10-19T12:30:48.689Z,70.46
2022-10-19T12:31:48.692Z,73.07
2022-10-19T12:32:53.414Z,74.06
2022-10-19T12:33:50.666Z,69.08
2022-10-19T12:34:48.697Z,71.27
2022-10-19T12:35:48.688Z,68.43
2022-10-19T12:36:48.644Z,70.19
2022-10-19T12:37:48.646Z,72.99
2022-10-19T12:38:51.035Z,70.65
2022-10-19T12:39:49.620Z,70.33
2022-10-19T12:40:48.737Z,72.94
2022-10-19T12:41:48.632Z,72.02
2022-10-19T12:42:48.631Z,70.24
2022-10-19T12:43:48.644Z,74.03
2022-10-19T12:44:48.593Z,73.67
2022-10-19T12:45:48.660Z,71.51
2022-10-19T12:46:51.689Z,70.59
2022-10-19T12:47:49.600Z,72.22
2022-10-19T12:48:48.582Z,71.07
2022-10-19T12:49:48.595Z,73.83
2022-10-19T12:50:48.614Z,68.81
2022-10-19T12:51:48.619Z,73.17
2022-10-19T12:52:48.573Z,72.08
2022-10-19T12:53:48.559Z,72.22
2022-10-19T12:54:48.562Z,75.78
2022-10-19T12:55:48.550Z,72.61
2022-10-19T12:56:49.776Z,72.85